sensor_id;sensor_type;location;lat;lon;timestamp;P1;durP1;ratioP1;P2;durP2;ratioP2
18340;SDS011;9296;48.084;16.352;2022-07-01T00:01:46;13.65;;;11.32;;
18340;SDS011;9296;48.084;16.352;2022-07-01T00:04:14;13.23;;;11.48;;
18340;SDS011;9296;48.084;16.352;2022-07-01T00:06:41;13.38;;;11.65;;
18340;SDS011;9296;48.084;16.352;2022-07-01T00:09:10;13.57;;;11.02;;
18340;SDS011;9296;48.084;16.352;2022-07-01T00:11:36;12.55;;;11.32;;
18340;SDS011;9296;48.084;16.352;2022-07-01T00:14:03;12.15;;;10.85;;
18340;SDS011;9296;48.084;16.352;2022-07-01T00:16:30;12.82;;;11.07;;
18340;SDS011;9296;48.084;16.352;2022-07-01T00:18:57;14.80;;;11.43;;
18340;SDS011;9296;48.084;16.352;2022-07-01T00:21:24;12.45;;;11.25;;
18340;SDS011;9296;48.084;16.352;2022-07-01T00:23:51;13.43;;;11.55;;
18340;SDS011;9296;48.084;16.352;2022-07-01T00:26:19;12.88;;;11.43;;
18340;SDS011;9296;48.084;16.352;2022-07-01T00:28:46;15.60;;;11.80;;
18340;SDS011;9296;48.084;16.352;2022-07-01T00:31:13;13.35;;;11.43;;
18340;SDS011;9296;48.084;16.352;2022-07-01T00:33:40;13.27;;;11.30;;
18340;SDS011;9296;48.084;16.352;2022-07-01T00:36:07;13.68;;;11.50;;
18340;SDS011;9296;48.084;16.352;2022-07-01T00:38:34;14.05;;;11.40;;
18340;SDS011;9296;48.084;16.352;2022-07-01T00:41:01;12.63;;;10.57;;
18340;SDS011;9296;48.084;16.352;2022-07-01T00:43:33;10.80;;;9.80;;
18340;SDS011;9296;48.084;16.352;2022-07-01T00:46:01;11.40;;;9.73;;
18340;SDS011;9296;48.084;16.352;2022-07-01T00:48:28;17.33;;;10.00;;
18340;SDS011;9296;48.084;16.352;2022-07-01T00:50:57;12.27;;;9.38;;
18340;SDS011;9296;48.084;16.352;2022-07-01T00:53:24;12.10;;;9.25;;
18340;SDS011;9296;48.084;16.352;2022-07-01T00:55:51;11.10;;;8.73;;
18340;SDS011;9296;48.084;16.352;2022-07-01T00:58:18;9.25;;;8.35;;
18340;SDS011;9296;48.084;16.352;2022-07-01T01:00:46;9.50;;;8.60;;
18340;SDS011;9296;48.084;16.352;2022-07-01T01:03:13;11.60;;;8.57;;
18340;SDS011;9296;48.084;16.352;2022-07-01T01:05:40;9.98;;;8.55;;
18340;SDS011;9296;48.084;16.352;2022-07-01T01:08:08;9.35;;;8.50;;
18340;SDS011;9296;48.084;16.352;2022-07-01T01:10:36;10.00;;;8.95;;
18340;SDS011;9296;48.084;16.352;2022-07-01T01:13:03;9.23;;;8.43;;
18340;SDS011;9296;48.084;16.352;2022-07-01T01:15:31;10.75;;;8.77;;
18340;SDS011;9296;48.084;16.352;2022-07-01T01:17:59;10.02;;;8.68;;
18340;SDS011;9296;48.084;16.352;2022-07-01T01:23:01;9.80;;;8.80;;
18340;SDS011;9296;48.084;16.352;2022-07-01T01:25:29;9.70;;;8.68;;
18340;SDS011;9296;48.084;16.352;2022-07-01T01:27:56;10.07;;;8.93;;
18340;SDS011;9296;48.084;16.352;2022-07-01T01:30:24;9.00;;;8.20;;
18340;SDS011;9296;48.084;16.352;2022-07-01T01:32:51;9.55;;;8.52;;
18340;SDS011;9296;48.084;16.352;2022-07-01T01:35:18;9.80;;;8.93;;
18340;SDS011;9296;48.084;16.352;2022-07-01T01:37:46;10.55;;;8.93;;
18340;SDS011;9296;48.084;16.352;2022-07-01T01:40:13;10.18;;;9.02;;
18340;SDS011;9296;48.084;16.352;2022-07-01T01:42:41;9.77;;;8.82;;
18340;SDS011;9296;48.084;16.352;2022-07-01T01:45:08;10.25;;;9.35;;
18340;SDS011;9296;48.084;16.352;2022-07-01T01:47:36;10.10;;;9.07;;
18340;SDS011;9296;48.084;16.352;2022-07-01T01:50:03;10.35;;;9.07;;
18340;SDS011;9296;48.084;16.352;2022-07-01T01:52:31;10.13;;;8.65;;
18340;SDS011;9296;48.084;16.352;2022-07-01T01:54:59;9.27;;;8.48;;
18340;SDS011;9296;48.084;16.352;2022-07-01T01:57:26;13.20;;;9.32;;
18340;SDS011;9296;48.084;16.352;2022-07-01T01:59:53;10.25;;;9.25;;
18340;SDS011;9296;48.084;16.352;2022-07-01T02:02:20;9.50;;;8.60;;
18340;SDS011;9296;48.084;16.352;2022-07-01T02:04:46;10.32;;;8.90;;
18340;SDS011;9296;48.084;16.352;2022-07-01T02:07:13;11.38;;;10.05;;
18340;SDS011;9296;48.084;16.352;2022-07-01T02:09:40;9.60;;;8.63;;
18340;SDS011;9296;48.084;16.352;2022-07-01T02:12:09;9.60;;;8.60;;
18340;SDS011;9296;48.084;16.352;2022-07-01T02:14:54;9.48;;;8.68;;
18340;SDS011;9296;48.084;16.352;2022-07-01T02:17:21;10.90;;;9.25;;
18340;SDS011;9296;48.084;16.352;2022-07-01T02:19:48;10.65;;;9.75;;
18340;SDS011;9296;48.084;16.352;2022-07-01T02:22:15;12.80;;;10.52;;
18340;SDS011;9296;48.084;16.352;2022-07-01T02:24:41;12.52;;;11.23;;
18340;SDS011;9296;48.084;16.352;2022-07-01T02:27:11;13.48;;;11.70;;
18340;SDS011;9296;48.084;16.352;2022-07-01T02:29:39;16.45;;;11.90;;
18340;SDS011;9296;48.084;16.352;2022-07-01T02:32:06;12.80;;;11.50;;
18340;SDS011;9296;48.084;16.352;2022-07-01T02:34:33;14.23;;;12.07;;
18340;SDS011;9296;48.084;16.352;2022-07-01T02:37:00;13.30;;;11.55;;
18340;SDS011;9296;48.084;16.352;2022-07-01T02:39:27;12.40;;;11.10;;
18340;SDS011;9296;48.084;16.352;2022-07-01T02:41:54;13.85;;;11.13;;
18340;SDS011;9296;48.084;16.352;2022-07-01T02:44:40;14.15;;;11.90;;
18340;SDS011;9296;48.084;16.352;2022-07-01T02:47:06;12.75;;;11.50;;
18340;SDS011;9296;48.084;16.352;2022-07-01T02:49:33;13.00;;;11.70;;
18340;SDS011;9296;48.084;16.352;2022-07-01T02:52:00;13.50;;;12.05;;
18340;SDS011;9296;48.084;16.352;2022-07-01T02:54:27;14.80;;;12.00;;
18340;SDS011;9296;48.084;16.352;2022-07-01T02:56:54;13.02;;;11.55;;
18340;SDS011;9296;48.084;16.352;2022-07-01T02:59:21;13.55;;;12.15;;
18340;SDS011;9296;48.084;16.352;2022-07-01T03:01:49;13.02;;;11.63;;
18340;SDS011;9296;48.084;16.352;2022-07-01T03:04:16;13.52;;;11.57;;
18340;SDS011;9296;48.084;16.352;2022-07-01T03:06:43;12.90;;;11.60;;
18340;SDS011;9296;48.084;16.352;2022-07-01T03:09:10;15.60;;;12.32;;
18340;SDS011;9296;48.084;16.352;2022-07-01T03:11:37;13.13;;;11.57;;
18340;SDS011;9296;48.084;16.352;2022-07-01T03:14:04;13.25;;;11.85;;
18340;SDS011;9296;48.084;16.352;2022-07-01T03:16:31;13.23;;;11.52;;
18340;SDS011;9296;48.084;16.352;2022-07-01T03:18:59;14.32;;;11.35;;
18340;SDS011;9296;48.084;16.352;2022-07-01T03:21:27;14.60;;;11.98;;
18340;SDS011;9296;48.084;16.352;2022-07-01T03:23:54;13.70;;;11.77;;
18340;SDS011;9296;48.084;16.352;2022-07-01T03:26:20;12.98;;;11.63;;
18340;SDS011;9296;48.084;16.352;2022-07-01T03:28:47;12.93;;;11.45;;
18340;SDS011;9296;48.084;16.352;2022-07-01T03:31:14;12.57;;;11.27;;
18340;SDS011;9296;48.084;16.352;2022-07-01T03:33:41;13.93;;;11.73;;
18340;SDS011;9296;48.084;16.352;2022-07-01T03:36:10;13.73;;;12.02;;
18340;SDS011;9296;48.084;16.352;2022-07-01T03:38:36;13.35;;;11.98;;
18340;SDS011;9296;48.084;16.352;2022-07-01T03:41:03;17.17;;;12.05;;
18340;SDS011;9296;48.084;16.352;2022-07-01T03:43:30;12.88;;;11.60;;
18340;SDS011;9296;48.084;16.352;2022-07-01T03:45:57;13.73;;;11.25;;
18340;SDS011;9296;48.084;16.352;2022-07-01T03:48:24;14.23;;;11.68;;
18340;SDS011;9296;48.084;16.352;2022-07-01T03:50:51;14.18;;;12.30;;
18340;SDS011;9296;48.084;16.352;2022-07-01T03:53:19;12.88;;;11.57;;
18340;SDS011;9296;48.084;16.352;2022-07-01T03:56:04;13.30;;;12.10;;
18340;SDS011;9296;48.084;16.352;2022-07-01T03:58:31;13.23;;;12.00;;
18340;SDS011;9296;48.084;16.352;2022-07-01T04:00:58;14.10;;;12.38;;
18340;SDS011;9296;48.084;16.352;2022-07-01T04:03:25;13.65;;;12.27;;
18340;SDS011;9296;48.084;16.352;2022-07-01T04:05:52;12.95;;;11.75;;
18340;SDS011;9296;48.084;16.352;2022-07-01T04:08:20;13.82;;;12.23;;
18340;SDS011;9296;48.084;16.352;2022-07-01T04:10:47;13.25;;;11.85;;
18340;SDS011;9296;48.084;16.352;2022-07-01T04:13:18;12.43;;;11.15;;
18340;SDS011;9296;48.084;16.352;2022-07-01T04:15:46;13.95;;;12.55;;
18340;SDS011;9296;48.084;16.352;2022-07-01T04:18:13;12.90;;;11.70;;
18340;SDS011;9296;48.084;16.352;2022-07-01T04:20:40;13.07;;;11.70;;
18340;SDS011;9296;48.084;16.352;2022-07-01T04:23:07;13.00;;;11.70;;
18340;SDS011;9296;48.084;16.352;2022-07-01T04:25:34;12.60;;;11.40;;
18340;SDS011;9296;48.084;16.352;2022-07-01T04:28:01;12.52;;;11.23;;
18340;SDS011;9296;48.084;16.352;2022-07-01T04:30:28;13.90;;;12.38;;
18340;SDS011;9296;48.084;16.352;2022-07-01T04:32:55;13.43;;;11.52;;
18340;SDS011;9296;48.084;16.352;2022-07-01T04:35:22;13.48;;;12.07;;
18340;SDS011;9296;48.084;16.352;2022-07-01T04:37:49;12.50;;;11.23;;
18340;SDS011;9296;48.084;16.352;2022-07-01T04:40:16;12.48;;;11.23;;
18340;SDS011;9296;48.084;16.352;2022-07-01T04:42:44;12.60;;;11.40;;
18340;SDS011;9296;48.084;16.352;2022-07-01T04:45:10;12.10;;;10.80;;
18340;SDS011;9296;48.084;16.352;2022-07-01T04:47:38;11.15;;;10.05;;
18340;SDS011;9296;48.084;16.352;2022-07-01T04:50:05;11.75;;;10.55;;
18340;SDS011;9296;48.084;16.352;2022-07-01T04:52:32;10.93;;;9.80;;
18340;SDS011;9296;48.084;16.352;2022-07-01T04:54:59;9.98;;;9.00;;
18340;SDS011;9296;48.084;16.352;2022-07-01T04:57:26;10.10;;;9.20;;
18340;SDS011;9296;48.084;16.352;2022-07-01T04:59:54;10.52;;;7.30;;
18340;SDS011;9296;48.084;16.352;2022-07-01T05:02:21;13.13;;;8.15;;
18340;SDS011;9296;48.084;16.352;2022-07-01T05:04:48;10.65;;;5.38;;
18340;SDS011;9296;48.084;16.352;2022-07-01T05:07:15;7.82;;;4.72;;
18340;SDS011;9296;48.084;16.352;2022-07-01T05:09:54;5.63;;;4.53;;
18340;SDS011;9296;48.084;16.352;2022-07-01T05:12:21;5.88;;;4.45;;
18340;SDS011;9296;48.084;16.352;2022-07-01T05:14:48;9.15;;;5.55;;
18340;SDS011;9296;48.084;16.352;2022-07-01T05:17:17;6.05;;;4.00;;
18340;SDS011;9296;48.084;16.352;2022-07-01T05:19:44;5.03;;;4.22;;
18340;SDS011;9296;48.084;16.352;2022-07-01T05:22:28;5.03;;;4.35;;
18340;SDS011;9296;48.084;16.352;2022-07-01T05:24:55;5.80;;;4.18;;
18340;SDS011;9296;48.084;16.352;2022-07-01T05:27:21;5.20;;;4.10;;
18340;SDS011;9296;48.084;16.352;2022-07-01T05:29:49;4.32;;;3.83;;
18340;SDS011;9296;48.084;16.352;2022-07-01T05:32:18;6.70;;;4.57;;
18340;SDS011;9296;48.084;16.352;2022-07-01T05:34:45;4.63;;;4.05;;
18340;SDS011;9296;48.084;16.352;2022-07-01T05:37:12;5.40;;;4.05;;
18340;SDS011;9296;48.084;16.352;2022-07-01T05:39:41;5.40;;;3.97;;
18340;SDS011;9296;48.084;16.352;2022-07-01T05:42:09;5.40;;;3.47;;
18340;SDS011;9296;48.084;16.352;2022-07-01T05:44:53;4.88;;;2.30;;
18340;SDS011;9296;48.084;16.352;2022-07-01T05:47:22;2.38;;;2.17;;
18340;SDS011;9296;48.084;16.352;2022-07-01T05:49:48;4.30;;;2.15;;
18340;SDS011;9296;48.084;16.352;2022-07-01T05:52:15;2.42;;;1.73;;
18340;SDS011;9296;48.084;16.352;2022-07-01T05:54:42;3.35;;;2.05;;
18340;SDS011;9296;48.084;16.352;2022-07-01T05:57:09;4.07;;;2.00;;
18340;SDS011;9296;48.084;16.352;2022-07-01T05:59:37;3.22;;;1.80;;
18340;SDS011;9296;48.084;16.352;2022-07-01T06:02:03;3.60;;;1.75;;
18340;SDS011;9296;48.084;16.352;2022-07-01T06:04:32;3.78;;;1.50;;
18340;SDS011;9296;48.084;16.352;2022-07-01T06:06:59;2.78;;;1.52;;
18340;SDS011;9296;48.084;16.352;2022-07-01T06:09:26;2.58;;;1.65;;
18340;SDS011;9296;48.084;16.352;2022-07-01T06:11:53;2.47;;;1.60;;
18340;SDS011;9296;48.084;16.352;2022-07-01T06:14:20;4.18;;;1.88;;
18340;SDS011;9296;48.084;16.352;2022-07-01T06:16:47;2.60;;;1.42;;
18340;SDS011;9296;48.084;16.352;2022-07-01T06:19:14;2.95;;;1.52;;
18340;SDS011;9296;48.084;16.352;2022-07-01T06:21:42;3.08;;;1.50;;
18340;SDS011;9296;48.084;16.352;2022-07-01T06:24:09;3.35;;;1.77;;
18340;SDS011;9296;48.084;16.352;2022-07-01T06:26:36;2.95;;;1.70;;
18340;SDS011;9296;48.084;16.352;2022-07-01T06:29:03;3.88;;;1.77;;
18340;SDS011;9296;48.084;16.352;2022-07-01T06:31:30;2.63;;;1.80;;
18340;SDS011;9296;48.084;16.352;2022-07-01T06:33:58;4.00;;;1.60;;
18340;SDS011;9296;48.084;16.352;2022-07-01T06:36:25;5.53;;;1.65;;
18340;SDS011;9296;48.084;16.352;2022-07-01T06:38:54;3.20;;;1.60;;
18340;SDS011;9296;48.084;16.352;2022-07-01T06:41:21;3.38;;;1.98;;
18340;SDS011;9296;48.084;16.352;2022-07-01T06:43:53;2.38;;;1.48;;
18340;SDS011;9296;48.084;16.352;2022-07-01T06:46:20;1.77;;;1.63;;
18340;SDS011;9296;48.084;16.352;2022-07-01T06:48:48;3.42;;;1.90;;
18340;SDS011;9296;48.084;16.352;2022-07-01T06:51:16;2.00;;;1.80;;
18340;SDS011;9296;48.084;16.352;2022-07-01T06:53:43;2.75;;;1.85;;
18340;SDS011;9296;48.084;16.352;2022-07-01T06:56:13;3.95;;;2.00;;
18340;SDS011;9296;48.084;16.352;2022-07-01T06:58:40;2.47;;;1.80;;
18340;SDS011;9296;48.084;16.352;2022-07-01T07:01:08;3.80;;;2.20;;
18340;SDS011;9296;48.084;16.352;2022-07-01T07:03:35;5.03;;;1.77;;
18340;SDS011;9296;48.084;16.352;2022-07-01T07:06:02;2.83;;;2.00;;
18340;SDS011;9296;48.084;16.352;2022-07-01T07:08:30;3.53;;;1.92;;
18340;SDS011;9296;48.084;16.352;2022-07-01T07:10:58;3.42;;;2.08;;
18340;SDS011;9296;48.084;16.352;2022-07-01T07:13:27;3.15;;;2.25;;
18340;SDS011;9296;48.084;16.352;2022-07-01T07:15:54;3.85;;;2.00;;
18340;SDS011;9296;48.084;16.352;2022-07-01T07:18:21;4.50;;;2.00;;
18340;SDS011;9296;48.084;16.352;2022-07-01T07:20:48;3.90;;;2.13;;
18340;SDS011;9296;48.084;16.352;2022-07-01T07:23:15;2.13;;;1.90;;
18340;SDS011;9296;48.084;16.352;2022-07-01T07:25:42;4.95;;;2.30;;
18340;SDS011;9296;48.084;16.352;2022-07-01T07:28:09;3.85;;;2.22;;
18340;SDS011;9296;48.084;16.352;2022-07-01T07:30:37;2.78;;;2.28;;
18340;SDS011;9296;48.084;16.352;2022-07-01T07:33:04;6.10;;;2.60;;
18340;SDS011;9296;48.084;16.352;2022-07-01T07:35:31;3.53;;;2.53;;
18340;SDS011;9296;48.084;16.352;2022-07-01T07:37:58;3.97;;;2.35;;
18340;SDS011;9296;48.084;16.352;2022-07-01T07:40:25;5.28;;;2.50;;
18340;SDS011;9296;48.084;16.352;2022-07-01T07:42:53;4.68;;;2.70;;
18340;SDS011;9296;48.084;16.352;2022-07-01T07:45:20;2.67;;;2.22;;
18340;SDS011;9296;48.084;16.352;2022-07-01T07:47:48;3.40;;;2.50;;
18340;SDS011;9296;48.084;16.352;2022-07-01T07:50:24;3.42;;;3.13;;
18340;SDS011;9296;48.084;16.352;2022-07-01T07:52:51;3.75;;;2.75;;
18340;SDS011;9296;48.084;16.352;2022-07-01T07:55:18;2.78;;;2.35;;
18340;SDS011;9296;48.084;16.352;2022-07-01T07:57:45;4.38;;;2.78;;
18340;SDS011;9296;48.084;16.352;2022-07-01T08:00:12;4.07;;;2.80;;
18340;SDS011;9296;48.084;16.352;2022-07-01T08:02:40;4.05;;;2.85;;
18340;SDS011;9296;48.084;16.352;2022-07-01T08:05:09;3.13;;;2.50;;
18340;SDS011;9296;48.084;16.352;2022-07-01T08:07:37;3.17;;;2.90;;
18340;SDS011;9296;48.084;16.352;2022-07-01T08:10:05;3.42;;;2.78;;
18340;SDS011;9296;48.084;16.352;2022-07-01T08:12:33;3.15;;;2.85;;
18340;SDS011;9296;48.084;16.352;2022-07-01T08:15:02;3.58;;;3.13;;
18340;SDS011;9296;48.084;16.352;2022-07-01T08:17:32;3.88;;;3.13;;
18340;SDS011;9296;48.084;16.352;2022-07-01T08:20:00;4.70;;;3.20;;
18340;SDS011;9296;48.084;16.352;2022-07-01T08:22:28;5.20;;;2.97;;
18340;SDS011;9296;48.084;16.352;2022-07-01T08:24:55;5.90;;;3.15;;
18340;SDS011;9296;48.084;16.352;2022-07-01T08:27:22;4.72;;;3.20;;
18340;SDS011;9296;48.084;16.352;2022-07-01T08:29:49;3.78;;;3.30;;
18340;SDS011;9296;48.084;16.352;2022-07-01T08:32:16;5.22;;;3.00;;
18340;SDS011;9296;48.084;16.352;2022-07-01T08:34:43;6.60;;;3.10;;
18340;SDS011;9296;48.084;16.352;2022-07-01T08:37:10;4.07;;;3.25;;
18340;SDS011;9296;48.084;16.352;2022-07-01T08:39:38;4.15;;;3.35;;
18340;SDS011;9296;48.084;16.352;2022-07-01T08:42:06;5.68;;;3.33;;
18340;SDS011;9296;48.084;16.352;2022-07-01T08:44:33;3.38;;;3.08;;
18340;SDS011;9296;48.084;16.352;2022-07-01T08:47:04;4.88;;;3.20;;
18340;SDS011;9296;48.084;16.352;2022-07-01T08:49:31;5.25;;;3.08;;
18340;SDS011;9296;48.084;16.352;2022-07-01T08:51:58;5.53;;;3.50;;
18340;SDS011;9296;48.084;16.352;2022-07-01T08:54:25;3.75;;;3.40;;
18340;SDS011;9296;48.084;16.352;2022-07-01T08:56:54;5.22;;;3.38;;
18340;SDS011;9296;48.084;16.352;2022-07-01T08:59:22;6.63;;;3.70;;
18340;SDS011;9296;48.084;16.352;2022-07-01T09:01:54;3.55;;;3.25;;
18340;SDS011;9296;48.084;16.352;2022-07-01T09:04:23;4.40;;;3.50;;
18340;SDS011;9296;48.084;16.352;2022-07-01T09:06:50;5.47;;;3.47;;
18340;SDS011;9296;48.084;16.352;2022-07-01T09:09:18;5.72;;;3.80;;
18340;SDS011;9296;48.084;16.352;2022-07-01T09:11:46;6.43;;;3.70;;
18340;SDS011;9296;48.084;16.352;2022-07-01T09:14:20;5.65;;;3.80;;
18340;SDS011;9296;48.084;16.352;2022-07-01T09:16:48;5.63;;;3.50;;
18340;SDS011;9296;48.084;16.352;2022-07-01T09:19:17;3.70;;;3.40;;
18340;SDS011;9296;48.084;16.352;2022-07-01T09:21:47;6.35;;;3.67;;
18340;SDS011;9296;48.084;16.352;2022-07-01T09:24:22;4.50;;;4.10;;
18340;SDS011;9296;48.084;16.352;2022-07-01T09:26:55;5.03;;;3.45;;
18340;SDS011;9296;48.084;16.352;2022-07-01T09:29:29;7.00;;;3.85;;
18340;SDS011;9296;48.084;16.352;2022-07-01T09:32:00;4.85;;;3.60;;
18340;SDS011;9296;48.084;16.352;2022-07-01T09:34:32;4.72;;;4.03;;
18340;SDS011;9296;48.084;16.352;2022-07-01T09:37:00;4.25;;;3.85;;
18340;SDS011;9296;48.084;16.352;2022-07-01T09:39:28;8.13;;;4.05;;
18340;SDS011;9296;48.084;16.352;2022-07-01T09:41:55;4.57;;;3.70;;
18340;SDS011;9296;48.084;16.352;2022-07-01T09:44:23;4.75;;;4.00;;
18340;SDS011;9296;48.084;16.352;2022-07-01T09:46:54;4.63;;;3.97;;
18340;SDS011;9296;48.084;16.352;2022-07-01T09:49:22;5.07;;;3.83;;
18340;SDS011;9296;48.084;16.352;2022-07-01T09:51:50;9.88;;;8.10;;
18340;SDS011;9296;48.084;16.352;2022-07-01T09:54:17;5.95;;;4.00;;
18340;SDS011;9296;48.084;16.352;2022-07-01T09:56:44;6.63;;;3.45;;
18340;SDS011;9296;48.084;16.352;2022-07-01T09:59:11;5.45;;;3.97;;
18340;SDS011;9296;48.084;16.352;2022-07-01T10:01:38;5.13;;;4.05;;
18340;SDS011;9296;48.084;16.352;2022-07-01T10:04:07;8.90;;;3.90;;
18340;SDS011;9296;48.084;16.352;2022-07-01T10:06:45;5.65;;;3.85;;
18340;SDS011;9296;48.084;16.352;2022-07-01T10:09:33;4.63;;;4.20;;
18340;SDS011;9296;48.084;16.352;2022-07-01T10:15:08;5.47;;;4.07;;
18340;SDS011;9296;48.084;16.352;2022-07-01T10:17:37;7.57;;;4.13;;
18340;SDS011;9296;48.084;16.352;2022-07-01T10:20:11;4.00;;;3.70;;
18340;SDS011;9296;48.084;16.352;2022-07-01T10:22:39;4.07;;;3.50;;
18340;SDS011;9296;48.084;16.352;2022-07-01T10:28:16;5.82;;;3.80;;
18340;SDS011;9296;48.084;16.352;2022-07-01T10:30:54;4.55;;;3.67;;
18340;SDS011;9296;48.084;16.352;2022-07-01T10:33:32;6.07;;;4.05;;
18340;SDS011;9296;48.084;16.352;2022-07-01T10:36:09;3.95;;;3.45;;
18340;SDS011;9296;48.084;16.352;2022-07-01T10:41:37;5.55;;;4.10;;
18340;SDS011;9296;48.084;16.352;2022-07-01T10:44:05;5.40;;;4.30;;
18340;SDS011;9296;48.084;16.352;2022-07-01T10:46:37;7.32;;;4.65;;
18340;SDS011;9296;48.084;16.352;2022-07-01T10:49:06;7.63;;;4.78;;
18340;SDS011;9296;48.084;16.352;2022-07-01T10:51:46;7.38;;;4.70;;
18340;SDS011;9296;48.084;16.352;2022-07-01T10:57:18;6.20;;;4.38;;
18340;SDS011;9296;48.084;16.352;2022-07-01T10:59:48;5.55;;;4.75;;
18340;SDS011;9296;48.084;16.352;2022-07-01T11:02:18;5.55;;;3.90;;
18340;SDS011;9296;48.084;16.352;2022-07-01T11:04:47;4.28;;;3.83;;
18340;SDS011;9296;48.084;16.352;2022-07-01T11:07:16;5.15;;;3.88;;
18340;SDS011;9296;48.084;16.352;2022-07-01T11:09:43;6.65;;;3.90;;
18340;SDS011;9296;48.084;16.352;2022-07-01T11:12:10;4.53;;;4.13;;
18340;SDS011;9296;48.084;16.352;2022-07-01T11:14:37;4.38;;;4.00;;
18340;SDS011;9296;48.084;16.352;2022-07-01T11:17:06;4.80;;;4.30;;
18340;SDS011;9296;48.084;16.352;2022-07-01T11:19:34;4.68;;;4.18;;
18340;SDS011;9296;48.084;16.352;2022-07-01T11:22:02;4.20;;;3.80;;
18340;SDS011;9296;48.084;16.352;2022-07-01T11:24:32;4.82;;;4.32;;
18340;SDS011;9296;48.084;16.352;2022-07-01T11:26:59;4.38;;;3.97;;
18340;SDS011;9296;48.084;16.352;2022-07-01T11:29:32;5.90;;;4.18;;
18340;SDS011;9296;48.084;16.352;2022-07-01T11:31:59;4.82;;;4.28;;
18340;SDS011;9296;48.084;16.352;2022-07-01T11:34:27;6.10;;;3.50;;
18340;SDS011;9296;48.084;16.352;2022-07-01T11:36:56;4.43;;;3.75;;
18340;SDS011;9296;48.084;16.352;2022-07-01T11:39:41;4.05;;;3.67;;
18340;SDS011;9296;48.084;16.352;2022-07-01T11:42:09;4.07;;;3.33;;
18340;SDS011;9296;48.084;16.352;2022-07-01T11:44:37;5.38;;;3.65;;
18340;SDS011;9296;48.084;16.352;2022-07-01T11:47:06;4.65;;;3.65;;
18340;SDS011;9296;48.084;16.352;2022-07-01T11:49:34;4.20;;;3.30;;
18340;SDS011;9296;48.084;16.352;2022-07-01T11:52:09;5.57;;;3.28;;
18340;SDS011;9296;48.084;16.352;2022-07-01T11:54:37;4.30;;;3.00;;
18340;SDS011;9296;48.084;16.352;2022-07-01T11:57:09;5.68;;;3.35;;
18340;SDS011;9296;48.084;16.352;2022-07-01T11:59:41;4.22;;;3.60;;
18340;SDS011;9296;48.084;16.352;2022-07-01T12:02:11;3.35;;;3.05;;
18340;SDS011;9296;48.084;16.352;2022-07-01T12:04:39;5.72;;;3.42;;
18340;SDS011;9296;48.084;16.352;2022-07-01T12:07:06;5.57;;;3.50;;
18340;SDS011;9296;48.084;16.352;2022-07-01T12:09:34;4.80;;;3.50;;
18340;SDS011;9296;48.084;16.352;2022-07-01T12:12:01;6.65;;;3.65;;
18340;SDS011;9296;48.084;16.352;2022-07-01T12:14:32;4.28;;;3.47;;
18340;SDS011;9296;48.084;16.352;2022-07-01T12:17:01;3.72;;;3.40;;
18340;SDS011;9296;48.084;16.352;2022-07-01T12:19:29;5.20;;;4.07;;
18340;SDS011;9296;48.084;16.352;2022-07-01T12:22:05;5.15;;;3.83;;
18340;SDS011;9296;48.084;16.352;2022-07-01T12:24:33;4.32;;;3.53;;
18340;SDS011;9296;48.084;16.352;2022-07-01T12:27:01;4.40;;;4.00;;
18340;SDS011;9296;48.084;16.352;2022-07-01T12:32:17;4.20;;;3.80;;
18340;SDS011;9296;48.084;16.352;2022-07-01T12:34:48;4.65;;;3.88;;
18340;SDS011;9296;48.084;16.352;2022-07-01T12:37:17;4.30;;;3.80;;
18340;SDS011;9296;48.084;16.352;2022-07-01T12:39:45;5.40;;;3.90;;
18340;SDS011;9296;48.084;16.352;2022-07-01T12:42:24;4.93;;;4.07;;
18340;SDS011;9296;48.084;16.352;2022-07-01T12:44:55;4.25;;;3.80;;
18340;SDS011;9296;48.084;16.352;2022-07-01T12:47:27;4.35;;;3.95;;
18340;SDS011;9296;48.084;16.352;2022-07-01T12:50:08;4.63;;;3.80;;
18340;SDS011;9296;48.084;16.352;2022-07-01T12:52:40;4.18;;;3.75;;
18340;SDS011;9296;48.084;16.352;2022-07-01T12:55:15;4.28;;;3.88;;
18340;SDS011;9296;48.084;16.352;2022-07-01T12:57:43;8.85;;;4.20;;
18340;SDS011;9296;48.084;16.352;2022-07-01T13:00:14;5.10;;;3.90;;
18340;SDS011;9296;48.084;16.352;2022-07-01T13:02:42;5.75;;;4.47;;
18340;SDS011;9296;48.084;16.352;2022-07-01T13:05:09;5.47;;;3.70;;
18340;SDS011;9296;48.084;16.352;2022-07-01T13:07:38;4.78;;;4.22;;
18340;SDS011;9296;48.084;16.352;2022-07-01T13:10:05;5.20;;;3.85;;
18340;SDS011;9296;48.084;16.352;2022-07-01T13:12:33;5.45;;;4.03;;
18340;SDS011;9296;48.084;16.352;2022-07-01T13:15:00;5.07;;;3.80;;
18340;SDS011;9296;48.084;16.352;2022-07-01T13:17:28;4.55;;;3.95;;
18340;SDS011;9296;48.084;16.352;2022-07-01T13:19:55;7.82;;;4.10;;
18340;SDS011;9296;48.084;16.352;2022-07-01T13:22:22;4.50;;;4.10;;
18340;SDS011;9296;48.084;16.352;2022-07-01T13:24:49;5.95;;;4.25;;
18340;SDS011;9296;48.084;16.352;2022-07-01T13:27:16;6.32;;;4.15;;
18340;SDS011;9296;48.084;16.352;2022-07-01T13:35:55;4.93;;;4.28;;
18340;SDS011;9296;48.084;16.352;2022-07-01T13:38:23;4.82;;;4.00;;
18340;SDS011;9296;48.084;16.352;2022-07-01T13:40:50;6.50;;;4.05;;
18340;SDS011;9296;48.084;16.352;2022-07-01T13:43:17;4.75;;;4.22;;
18340;SDS011;9296;48.084;16.352;2022-07-01T13:49:07;4.93;;;3.88;;
18340;SDS011;9296;48.084;16.352;2022-07-01T13:51:34;4.30;;;3.85;;
18340;SDS011;9296;48.084;16.352;2022-07-01T13:54:01;4.65;;;4.22;;
18340;SDS011;9296;48.084;16.352;2022-07-01T13:56:28;4.97;;;4.40;;
18340;SDS011;9296;48.084;16.352;2022-07-01T13:58:55;6.50;;;4.30;;
18340;SDS011;9296;48.084;16.352;2022-07-01T14:01:40;8.05;;;4.35;;
18340;SDS011;9296;48.084;16.352;2022-07-01T14:04:09;8.57;;;4.35;;
18340;SDS011;9296;48.084;16.352;2022-07-01T14:06:36;5.25;;;4.20;;
18340;SDS011;9296;48.084;16.352;2022-07-01T14:09:03;6.63;;;4.55;;
18340;SDS011;9296;48.084;16.352;2022-07-01T14:11:30;7.53;;;4.32;;
18340;SDS011;9296;48.084;16.352;2022-07-01T14:13:57;5.68;;;4.47;;
18340;SDS011;9296;48.084;16.352;2022-07-01T14:19:48;4.82;;;4.32;;
18340;SDS011;9296;48.084;16.352;2022-07-01T14:22:14;5.78;;;4.53;;
18340;SDS011;9296;48.084;16.352;2022-07-01T14:24:41;7.32;;;4.90;;
18340;SDS011;9296;48.084;16.352;2022-07-01T14:27:08;7.35;;;4.72;;
18340;SDS011;9296;48.084;16.352;2022-07-01T14:36:15;5.30;;;4.43;;
18340;SDS011;9296;48.084;16.352;2022-07-01T14:38:42;5.90;;;4.70;;
18340;SDS011;9296;48.084;16.352;2022-07-01T14:41:09;6.60;;;4.70;;
18340;SDS011;9296;48.084;16.352;2022-07-01T14:43:36;5.28;;;4.78;;
18340;SDS011;9296;48.084;16.352;2022-07-01T14:49:25;5.45;;;4.75;;
18340;SDS011;9296;48.084;16.352;2022-07-01T14:51:53;4.80;;;4.38;;
18340;SDS011;9296;48.084;16.352;2022-07-01T14:54:20;7.13;;;4.85;;
18340;SDS011;9296;48.084;16.352;2022-07-01T14:56:47;5.40;;;4.43;;
18340;SDS011;9296;48.084;16.352;2022-07-01T14:59:14;5.63;;;4.75;;
18340;SDS011;9296;48.084;16.352;2022-07-01T15:05:03;5.07;;;4.50;;
18340;SDS011;9296;48.084;16.352;2022-07-01T15:07:32;5.43;;;4.53;;
18340;SDS011;9296;48.084;16.352;2022-07-01T15:09:59;4.90;;;4.50;;
18340;SDS011;9296;48.084;16.352;2022-07-01T15:12:26;5.05;;;4.55;;
18340;SDS011;9296;48.084;16.352;2022-07-01T15:14:53;5.47;;;4.35;;
18340;SDS011;9296;48.084;16.352;2022-07-01T15:17:21;5.40;;;4.38;;
18340;SDS011;9296;48.084;16.352;2022-07-01T15:19:48;5.95;;;4.22;;
18340;SDS011;9296;48.084;16.352;2022-07-01T15:22:15;7.65;;;4.50;;
18340;SDS011;9296;48.084;16.352;2022-07-01T15:24:44;4.40;;;4.00;;
18340;SDS011;9296;48.084;16.352;2022-07-01T15:27:11;7.32;;;4.63;;
18340;SDS011;9296;48.084;16.352;2022-07-01T15:32:33;6.85;;;4.70;;
18340;SDS011;9296;48.084;16.352;2022-07-01T15:35:02;5.40;;;4.50;;